createdAt,value
2022-07-29T00:01:56.255Z,1.67
2022-07-29T00:04:23.323Z,1.40
2022-07-29T00:06:50.446Z,1.83
2022-07-29T00:09:17.628Z,1.50
2022-07-29T00:12:02.148Z,4.53
2022-07-29T00:17:55.902Z,1.40
2022-07-29T00:20:22.956Z,1.30
2022-07-29T00:22:49.961Z,1.33
2022-07-29T00:25:16.996Z,1.33
2022-07-29T00:27:49.731Z,1.57
2022-07-29T00:30:47.403Z,1.50
2022-07-29T00:33:14.751Z,1.50
2022-07-29T00:35:44.702Z,1.43
2022-07-29T00:38:16.632Z,1.50
2022-07-29T00:40:44.563Z,1.50
2022-07-29T00:43:28.691Z,1.43
2022-07-29T00:45:55.728Z,1.30
2022-07-29T00:48:22.774Z,1.40
2022-07-29T00:51:12.176Z,1.57
2022-07-29T00:53:39.224Z,1.40
2022-07-29T00:56:06.325Z,1.50
2022-07-29T00:58:33.506Z,1.43
2022-07-29T01:01:00.691Z,1.67
2022-07-29T01:03:27.775Z,1.20
2022-07-29T01:05:56.015Z,1.50
2022-07-29T01:08:24.709Z,1.40
2022-07-29T01:10:52.527Z,1.40
2022-07-29T01:19:57.014Z,1.57
2022-07-29T01:23:17.052Z,2.13
2022-07-29T01:26:34.764Z,1.70
2022-07-29T01:30:27.374Z,1.40
2022-07-29T01:33:34.603Z,1.60
2022-07-29T01:36:08.253Z,1.50
2022-07-29T01:38:37.009Z,1.30
2022-07-29T01:41:09.376Z,2.07
2022-07-29T01:43:56.951Z,1.30
2022-07-29T01:46:45.067Z,1.40
2022-07-29T01:49:34.386Z,1.50
2022-07-29T01:53:01.719Z,1.30
2022-07-29T01:55:54.530Z,1.80
2022-07-29T01:58:27.925Z,1.37
2022-07-29T02:01:06.497Z,1.20
2022-07-29T02:03:52.118Z,1.33
2022-07-29T02:06:27.993Z,1.97
2022-07-29T02:08:58.356Z,1.50
2022-07-29T02:11:25.705Z,1.50
2022-07-29T02:14:21.822Z,1.37
2022-07-29T02:17:22.705Z,1.50
2022-07-29T02:20:41.915Z,1.47
2022-07-29T02:23:07.914Z,1.43
2022-07-29T02:26:07.987Z,1.40
2022-07-29T02:28:58.395Z,1.73
2022-07-29T02:31:42.706Z,1.37
2022-07-29T02:34:27.346Z,1.30
2022-07-29T02:37:04.169Z,1.53
2022-07-29T02:39:53.563Z,1.30
2022-07-29T02:42:27.325Z,1.10
2022-07-29T02:44:55.200Z,1.60
2022-07-29T02:47:41.258Z,1.50
2022-07-29T02:50:31.038Z,1.20
2022-07-29T02:53:10.289Z,1.50
2022-07-29T02:55:49.735Z,1.40
2022-07-29T02:58:29.805Z,1.50
2022-07-29T03:01:00.617Z,1.50
2022-07-29T03:03:37.661Z,1.60
2022-07-29T03:06:06.094Z,1.50
2022-07-29T03:08:35.157Z,1.30
2022-07-29T03:11:02.730Z,1.30
2022-07-29T03:13:31.458Z,1.20
2022-07-29T03:16:00.273Z,1.50
2022-07-29T03:18:27.873Z,1.53
2022-07-29T03:20:55.109Z,1.20
2022-07-29T03:23:24.741Z,1.27
2022-07-29T03:25:51.996Z,1.50
2022-07-29T03:28:19.845Z,1.30
2022-07-29T03:30:47.359Z,1.57
2022-07-29T03:33:15.112Z,1.50
2022-07-29T03:35:42.140Z,1.90
2022-07-29T03:38:09.197Z,1.50
2022-07-29T03:40:45.707Z,1.40
2022-07-29T03:43:16.483Z,1.70
2022-07-29T03:45:50.771Z,1.20
2022-07-29T03:48:21.841Z,1.40
2022-07-29T03:50:49.319Z,1.33
2022-07-29T03:53:16.722Z,1.40
2022-07-29T03:55:53.409Z,1.60
2022-07-29T03:58:20.755Z,1.30
2022-07-29T04:00:48.478Z,1.50
2022-07-29T04:03:16.806Z,1.47
2022-07-29T04:05:43.931Z,1.50
2022-07-29T04:08:10.916Z,1.50
2022-07-29T04:10:39.087Z,1.87
2022-07-29T04:13:06.636Z,1.80
2022-07-29T04:15:33.697Z,1.30
2022-07-29T04:18:00.889Z,1.37
2022-07-29T04:20:28.012Z,1.30
2022-07-29T04:22:55.247Z,1.30
2022-07-29T04:25:22.315Z,1.20
2022-07-29T04:28:01.473Z,1.67
2022-07-29T04:30:29.315Z,1.37
2022-07-29T04:32:56.634Z,1.60
2022-07-29T04:35:23.581Z,1.40
2022-07-29T04:37:50.709Z,1.47
2022-07-29T04:40:17.897Z,1.30
2022-07-29T04:42:47.745Z,3.90
2022-07-29T04:45:16.663Z,1.80
2022-07-29T04:47:50.157Z,2.03
2022-07-29T04:50:17.566Z,1.60
2022-07-29T04:52:44.681Z,1.57
2022-07-29T04:55:11.787Z,1.53
2022-07-29T04:57:38.862Z,1.63
2022-07-29T05:00:07.064Z,1.53
2022-07-29T05:02:34.125Z,1.63
2022-07-29T05:05:01.148Z,1.60
2022-07-29T05:07:28.138Z,1.70
2022-07-29T05:09:57.828Z,1.60
2022-07-29T05:12:25.877Z,1.60
2022-07-29T05:14:52.942Z,1.50
2022-07-29T05:17:19.962Z,1.47
2022-07-29T05:19:47.230Z,1.40
2022-07-29T05:22:14.254Z,1.30
2022-07-29T05:24:41.746Z,1.50
2022-07-29T05:27:08.837Z,1.50
2022-07-29T05:29:44.843Z,1.30
2022-07-29T05:32:13.734Z,2.10
2022-07-29T05:34:51.343Z,1.37
2022-07-29T05:37:22.065Z,1.60
2022-07-29T05:39:56.229Z,1.53
2022-07-29T05:42:25.730Z,1.47
2022-07-29T05:44:53.233Z,1.40
2022-07-29T05:47:20.265Z,1.60
2022-07-29T05:49:47.319Z,1.50
2022-07-29T05:52:14.446Z,1.63
2022-07-29T05:54:42.042Z,1.60
2022-07-29T05:57:17.051Z,1.50
2022-07-29T05:59:44.081Z,1.60
2022-07-29T06:02:11.180Z,1.50
2022-07-29T06:04:38.302Z,1.60
2022-07-29T06:07:05.486Z,1.80
2022-07-29T06:09:36.236Z,1.50
2022-07-29T06:12:04.162Z,2.03
2022-07-29T06:14:31.246Z,1.50
2022-07-29T06:16:58.259Z,1.50
2022-07-29T06:19:25.373Z,1.70
2022-07-29T06:21:52.463Z,1.60
2022-07-29T06:24:19.954Z,1.80
2022-07-29T06:26:47.290Z,1.50
2022-07-29T06:29:14.394Z,1.77
2022-07-29T06:31:41.507Z,2.25
2022-07-29T06:34:08.609Z,1.70
2022-07-29T06:36:39.804Z,1.70
2022-07-29T06:39:08.870Z,1.80
2022-07-29T06:41:36.508Z,1.70
2022-07-29T06:44:05.551Z,1.80
2022-07-29T06:46:33.665Z,1.90
2022-07-29T06:49:02.561Z,1.85
2022-07-29T06:51:29.991Z,1.80
2022-07-29T06:54:03.443Z,1.83
2022-07-29T06:56:38.445Z,1.52
2022-07-29T06:59:08.789Z,1.92
2022-07-29T07:01:41.757Z,1.80
2022-07-29T07:04:10.014Z,1.92
2022-07-29T07:06:38.669Z,1.92
2022-07-29T07:09:05.781Z,1.80
2022-07-29T07:11:32.954Z,2.20
2022-07-29T07:14:14.485Z,2.13
2022-07-29T07:16:42.056Z,2.00
2022-07-29T07:19:09.349Z,2.08
2022-07-29T07:21:36.419Z,2.30
2022-07-29T07:24:03.550Z,1.88
2022-07-29T07:26:30.825Z,2.15
2022-07-29T07:28:58.755Z,2.47
2022-07-29T07:31:25.973Z,2.15
2022-07-29T07:33:54.447Z,2.38
2022-07-29T07:36:21.713Z,1.98
2022-07-29T07:38:48.672Z,2.17
2022-07-29T07:41:18.539Z,1.92
2022-07-29T07:43:45.612Z,2.40
2022-07-29T07:46:12.710Z,2.05
2022-07-29T07:48:40.308Z,2.28
2022-07-29T07:51:08.190Z,2.20
2022-07-29T07:53:35.586Z,2.20
2022-07-29T07:56:12.078Z,1.80
2022-07-29T07:58:40.112Z,2.25
2022-07-29T08:01:07.486Z,1.90
2022-07-29T08:03:37.450Z,2.10
2022-07-29T08:06:05.166Z,2.80
2022-07-29T08:08:32.407Z,2.10
2022-07-29T08:11:02.279Z,2.30
2022-07-29T08:13:32.913Z,2.40
2022-07-29T08:16:11.995Z,2.10
2022-07-29T08:18:40.712Z,1.92
2022-07-29T08:21:07.719Z,2.30
2022-07-29T08:23:49.613Z,2.40
2022-07-29T08:26:20.916Z,2.35
2022-07-29T08:28:50.393Z,2.42
2022-07-29T08:31:17.961Z,2.10
2022-07-29T08:33:45.044Z,2.45
2022-07-29T08:36:14.041Z,2.28
2022-07-29T08:38:41.171Z,2.65
2022-07-29T08:41:08.383Z,2.70
2022-07-29T08:43:38.438Z,2.50
2022-07-29T08:46:05.680Z,2.47
2022-07-29T08:48:33.807Z,4.00
2022-07-29T08:51:08.809Z,3.00
2022-07-29T08:53:39.064Z,2.90
2022-07-29T08:56:06.926Z,2.88
2022-07-29T08:58:36.855Z,3.20
2022-07-29T09:01:06.893Z,2.55
2022-07-29T09:03:37.056Z,2.80
2022-07-29T09:06:04.956Z,2.97
2022-07-29T09:08:34.399Z,2.90
2022-07-29T09:11:05.541Z,2.47
2022-07-29T09:13:33.321Z,2.50
2022-07-29T09:16:03.365Z,2.80
2022-07-29T09:18:37.046Z,2.50
2022-07-29T09:21:24.140Z,3.03
2022-07-29T09:24:01.845Z,2.70
2022-07-29T09:26:30.784Z,2.30
2022-07-29T09:28:58.349Z,2.53
2022-07-29T09:31:37.166Z,2.50
2022-07-29T09:34:05.608Z,2.55
2022-07-29T09:36:40.151Z,2.50
2022-07-29T09:39:07.615Z,2.47
2022-07-29T09:41:48.256Z,2.60
2022-07-29T09:44:15.874Z,2.50
2022-07-29T09:47:07.399Z,2.15
2022-07-29T09:49:55.783Z,2.53
2022-07-29T09:52:23.031Z,2.30
2022-07-29T09:54:50.215Z,2.90
2022-07-29T09:57:30.887Z,2.50
2022-07-29T09:59:59.200Z,2.70
2022-07-29T10:02:34.831Z,2.35
2022-07-29T10:05:03.801Z,2.50
2022-07-29T10:07:57.126Z,2.50
2022-07-29T10:10:30.158Z,3.30
2022-07-29T10:13:06.201Z,2.50
2022-07-29T10:15:44.253Z,2.80
2022-07-29T10:18:13.249Z,4.07
2022-07-29T10:20:41.153Z,4.90
2022-07-29T10:23:08.246Z,3.10
2022-07-29T10:25:35.376Z,3.03
2022-07-29T10:28:02.571Z,2.40
2022-07-29T10:30:29.693Z,2.53
2022-07-29T10:33:19.060Z,2.63
2022-07-29T10:35:54.351Z,3.05
2022-07-29T10:38:40.199Z,2.60
2022-07-29T10:41:46.748Z,2.80
2022-07-29T10:44:19.020Z,2.17
2022-07-29T10:46:48.174Z,2.95
2022-07-29T10:49:30.845Z,2.55
2022-07-29T10:52:08.235Z,4.82
2022-07-29T10:54:38.261Z,2.10
2022-07-29T10:57:54.243Z,3.60
2022-07-29T11:00:31.340Z,1.90
2022-07-29T11:02:59.421Z,3.92
2022-07-29T11:05:39.853Z,3.10
2022-07-29T11:08:19.496Z,2.20
2022-07-29T11:10:52.885Z,2.10
2022-07-29T11:13:46.508Z,2.55
2022-07-29T11:16:15.983Z,2.17
2022-07-29T11:19:11.449Z,2.13
2022-07-29T11:21:53.914Z,2.28
2022-07-29T11:24:30.276Z,3.08
2022-07-29T11:27:13.356Z,2.45
2022-07-29T11:29:54.288Z,2.47
2022-07-29T11:32:23.381Z,3.63
2022-07-29T11:35:18.445Z,2.38
2022-07-29T11:37:52.543Z,2.20
2022-07-29T11:40:25.026Z,2.33
2022-07-29T11:42:52.910Z,2.45
2022-07-29T11:45:45.596Z,2.47
2022-07-29T11:48:27.879Z,2.70
2022-07-29T11:50:58.270Z,2.22
2022-07-29T11:53:26.133Z,2.35
2022-07-29T11:55:58.209Z,2.17
2022-07-29T11:58:26.249Z,2.28
2022-07-29T12:00:55.224Z,2.08
2022-07-29T12:03:35.249Z,2.20
2022-07-29T12:06:15.152Z,2.80
2022-07-29T12:08:46.074Z,2.50
2022-07-29T12:11:21.681Z,2.20
2022-07-29T12:13:50.993Z,5.35
2022-07-29T12:16:28.039Z,3.05
2022-07-29T12:19:04.406Z,2.40
2022-07-29T12:21:52.310Z,2.00
2022-07-29T12:24:26.663Z,2.40
2022-07-29T12:26:57.699Z,2.40
2022-07-29T12:29:35.254Z,2.85
2022-07-29T12:32:15.044Z,2.58
2022-07-29T12:34:47.327Z,1.90
2022-07-29T12:37:14.613Z,2.30
2022-07-29T12:39:53.419Z,2.25
2022-07-29T12:42:20.629Z,2.30
2022-07-29T12:44:52.255Z,2.47
2022-07-29T12:47:20.900Z,2.97
2022-07-29T12:49:49.015Z,2.72
2022-07-29T12:52:32.926Z,2.40
2022-07-29T12:55:00.123Z,2.03
2022-07-29T12:57:28.305Z,2.20
2022-07-29T13:00:06.101Z,2.00
2022-07-29T13:02:33.305Z,2.25
2022-07-29T13:05:01.930Z,2.67
2022-07-29T13:07:55.791Z,2.10
2022-07-29T13:10:24.099Z,2.08
2022-07-29T13:13:15.155Z,2.05
2022-07-29T13:16:08.565Z,2.10
2022-07-29T13:18:38.955Z,2.70
2022-07-29T13:21:14.711Z,2.00
2022-07-29T13:23:44.868Z,2.10
2022-07-29T13:26:12.960Z,2.10
2022-07-29T13:28:40.927Z,2.20
2022-07-29T13:31:11.884Z,2.10
2022-07-29T13:33:40.304Z,1.92
2022-07-29T13:36:08.336Z,2.10
2022-07-29T13:38:35.408Z,2.00
2022-07-29T13:41:03.116Z,2.78
2022-07-29T13:43:30.614Z,1.90
2022-07-29T13:45:57.838Z,1.95
2022-07-29T13:48:24.975Z,1.90
2022-07-29T13:51:06.477Z,2.20
2022-07-29T13:53:33.725Z,2.08
2022-07-29T13:56:01.542Z,2.63
2022-07-29T13:58:28.729Z,2.03
2022-07-29T14:00:57.955Z,2.58
2022-07-29T14:03:31.492Z,2.08
2022-07-29T14:06:00.949Z,2.13
2022-07-29T14:08:28.517Z,2.00
2022-07-29T14:10:55.718Z,2.10
2022-07-29T14:13:24.943Z,2.78
2022-07-29T14:15:53.880Z,2.20
2022-07-29T14:18:20.948Z,2.42
2022-07-29T14:20:48.090Z,1.98
2022-07-29T14:23:20.216Z,2.08
2022-07-29T14:25:47.712Z,6.95
2022-07-29T14:28:16.778Z,2.20
2022-07-29T14:30:44.212Z,2.15
2022-07-29T14:33:13.915Z,2.30
2022-07-29T14:35:41.475Z,2.10
2022-07-29T14:38:08.577Z,2.00
2022-07-29T14:40:35.910Z,2.28
2022-07-29T14:43:03.807Z,2.97
2022-07-29T14:45:31.101Z,4.78
2022-07-29T14:47:58.617Z,3.60
2022-07-29T14:50:31.319Z,2.00
2022-07-29T14:52:59.278Z,2.17
2022-07-29T14:55:26.682Z,1.80
2022-07-29T14:58:03.064Z,2.00
2022-07-29T15:00:35.043Z,2.10
2022-07-29T15:03:03.027Z,1.95
2022-07-29T15:05:31.366Z,2.10
2022-07-29T15:07:59.861Z,2.35
2022-07-29T15:10:28.225Z,2.50
2022-07-29T15:12:56.149Z,2.30
2022-07-29T15:15:23.484Z,2.60
2022-07-29T15:17:50.566Z,2.30
2022-07-29T15:20:17.588Z,2.20
2022-07-29T15:22:45.484Z,2.28
2022-07-29T15:25:12.638Z,2.65
2022-07-29T15:27:39.800Z,2.10
2022-07-29T15:30:07.402Z,2.33
2022-07-29T15:32:34.425Z,2.38
2022-07-29T15:35:01.506Z,2.47
2022-07-29T15:37:29.389Z,2.38
2022-07-29T15:40:16.550Z,2.40
2022-07-29T15:42:44.501Z,2.45
2022-07-29T15:45:11.629Z,2.00
2022-07-29T15:47:38.650Z,2.30
2022-07-29T15:50:07.433Z,2.03
2022-07-29T15:52:34.528Z,2.60
2022-07-29T15:55:01.557Z,2.33
2022-07-29T15:57:28.729Z,2.20
2022-07-29T15:59:55.866Z,2.88
2022-07-29T16:02:23.001Z,2.25
2022-07-29T16:04:50.109Z,3.60
2022-07-29T16:07:17.297Z,2.47
2022-07-29T16:09:49.297Z,2.78
2022-07-29T16:12:19.654Z,2.30
2022-07-29T16:14:49.400Z,2.60
2022-07-29T16:17:17.189Z,2.55
2022-07-29T16:19:44.407Z,2.15
2022-07-29T16:22:12.450Z,2.50
2022-07-29T16:24:39.874Z,2.85
2022-07-29T16:27:08.081Z,3.78
2022-07-29T16:29:37.038Z,2.50
2022-07-29T16:32:06.099Z,2.85
2022-07-29T16:34:33.595Z,3.00
2022-07-29T16:37:00.941Z,2.25
2022-07-29T16:39:30.362Z,2.50
2022-07-29T16:42:00.871Z,3.30
2022-07-29T16:44:30.501Z,2.42
2022-07-29T16:46:59.684Z,2.90
2022-07-29T16:49:27.736Z,2.60
2022-07-29T16:51:54.926Z,4.95
2022-07-29T16:54:22.073Z,2.53
2022-07-29T16:56:49.247Z,3.17
2022-07-29T16:59:16.372Z,2.85
2022-07-29T17:01:46.625Z,2.70
2022-07-29T17:04:14.962Z,2.60
2022-07-29T17:06:42.497Z,2.67
2022-07-29T17:09:11.349Z,2.50
2022-07-29T17:11:52.325Z,2.67
2022-07-29T17:14:26.987Z,2.33
2022-07-29T17:17:02.902Z,2.50
2022-07-29T17:19:35.342Z,2.85
2022-07-29T17:22:11.655Z,2.40
2022-07-29T17:24:43.085Z,2.38
2022-07-29T17:27:11.564Z,2.40
2022-07-29T17:29:39.543Z,2.40
2022-07-29T17:32:08.133Z,2.53
2022-07-29T17:34:39.743Z,2.30
2022-07-29T17:37:08.379Z,2.85
2022-07-29T17:39:36.048Z,2.33
2022-07-29T17:42:04.216Z,2.25
2022-07-29T17:44:36.309Z,2.42
2022-07-29T17:47:05.238Z,2.67
2022-07-29T17:49:33.629Z,2.30
2022-07-29T17:52:04.766Z,2.63
2022-07-29T17:54:31.882Z,2.28
2022-07-29T17:56:59.473Z,2.20
2022-07-29T17:59:27.060Z,2.42
2022-07-29T18:01:54.405Z,2.55
2022-07-29T18:04:23.317Z,2.33
2022-07-29T18:06:50.874Z,2.20
2022-07-29T18:09:18.340Z,2.22
2022-07-29T18:11:46.313Z,2.35
2022-07-29T18:14:13.768Z,2.90
2022-07-29T18:16:41.179Z,4.18
2022-07-29T18:19:08.766Z,3.67
2022-07-29T18:21:44.275Z,2.95
2022-07-29T18:24:27.510Z,2.40
2022-07-29T18:26:54.754Z,2.53
2022-07-29T18:29:21.984Z,2.40
2022-07-29T18:31:49.108Z,2.38
2022-07-29T18:34:17.045Z,2.35
2022-07-29T18:36:45.768Z,2.50
2022-07-29T18:39:13.214Z,2.25
2022-07-29T18:41:50.898Z,2.30
2022-07-29T18:44:22.844Z,2.40
2022-07-29T18:46:51.558Z,2.10
2022-07-29T18:49:19.316Z,2.35
2022-07-29T18:51:49.656Z,2.60
2022-07-29T18:54:20.020Z,2.55
2022-07-29T18:56:47.593Z,2.45
2022-07-29T18:59:20.631Z,2.35
2022-07-29T19:01:48.835Z,2.50
2022-07-29T19:04:17.241Z,2.70
2022-07-29T19:06:44.649Z,2.60
2022-07-29T19:09:11.824Z,2.40
2022-07-29T19:11:39.458Z,2.30
2022-07-29T19:14:06.552Z,2.22
2022-07-29T19:16:33.784Z,2.38
2022-07-29T19:20:05.307Z,4.63
2022-07-29T19:23:15.858Z,4.35
2022-07-29T19:26:06.763Z,3.22
2022-07-29T19:28:43.639Z,3.17
2022-07-29T19:31:30.737Z,2.75
2022-07-29T19:34:25.426Z,2.70
2022-07-29T19:40:52.496Z,4.30
2022-07-29T19:44:50.399Z,5.20
2022-07-29T19:47:20.528Z,4.93
2022-07-29T19:49:59.134Z,16.50
2022-07-29T19:52:36.985Z,4.10
2022-07-29T19:55:11.120Z,5.18
2022-07-29T19:58:09.008Z,7.60
2022-07-29T20:00:46.023Z,8.35
2022-07-29T20:03:24.640Z,19.63
2022-07-29T20:09:16.942Z,23.80
2022-07-29T20:11:57.227Z,4.75
2022-07-29T20:14:24.711Z,7.25
2022-07-29T20:17:00.919Z,9.63
2022-07-29T20:19:40.618Z,13.70
2022-07-29T20:22:10.966Z,28.42
2022-07-29T20:24:38.238Z,44.30
2022-07-29T20:27:14.268Z,16.45
2022-07-29T20:29:42.273Z,5.40
2022-07-29T20:32:12.151Z,8.73
2022-07-29T20:34:53.459Z,11.77
2022-07-29T20:37:25.623Z,5.07
2022-07-29T20:39:53.032Z,5.65
2022-07-29T20:42:20.963Z,6.68
2022-07-29T20:44:53.683Z,5.45
2022-07-29T20:47:23.833Z,5.32
2022-07-29T20:49:53.225Z,5.28
2022-07-29T20:52:31.434Z,5.55
2022-07-29T20:55:01.588Z,6.88
2022-07-29T20:57:38.928Z,5.45
2022-07-29T21:00:16.930Z,8.15
2022-07-29T21:02:47.705Z,8.98
2022-07-29T21:05:16.543Z,10.85
2022-07-29T21:07:46.228Z,12.43
2022-07-29T21:10:24.896Z,7.15
2022-07-29T21:12:52.348Z,7.57
2022-07-29T21:15:25.514Z,6.13
2022-07-29T21:18:03.974Z,10.35
2022-07-29T21:20:44.869Z,4.65
2022-07-29T21:23:38.083Z,9.27
2022-07-29T21:26:25.867Z,8.70
2022-07-29T21:28:54.926Z,9.73
2022-07-29T21:31:31.373Z,7.93
2022-07-29T21:34:15.725Z,8.07
2022-07-29T21:36:59.645Z,4.63
2022-07-29T21:39:28.496Z,5.13
2022-07-29T21:42:00.781Z,7.72
2022-07-29T21:44:28.175Z,5.70
2022-07-29T21:46:55.551Z,9.00
2022-07-29T21:49:23.404Z,5.63
2022-07-29T21:51:50.811Z,5.68
2022-07-29T21:54:18.326Z,5.32
2022-07-29T21:56:51.221Z,5.50
2022-07-29T21:59:20.949Z,8.75
2022-07-29T22:01:49.150Z,5.18
2022-07-29T22:04:19.428Z,4.40
2022-07-29T22:06:46.768Z,6.63
2022-07-29T22:09:13.983Z,3.88
2022-07-29T22:11:42.097Z,6.03
2022-07-29T22:14:09.403Z,4.45
2022-07-29T22:16:36.675Z,7.25
2022-07-29T22:19:03.979Z,3.40
2022-07-29T22:21:31.338Z,5.10
2022-07-29T22:23:58.435Z,4.28
2022-07-29T22:26:26.177Z,9.23
2022-07-29T22:28:57.538Z,9.93
2022-07-29T22:31:25.500Z,7.10
2022-07-29T22:33:56.552Z,8.07
2022-07-29T22:36:24.105Z,8.52
2022-07-29T22:38:52.143Z,6.60
2022-07-29T22:41:19.655Z,4.18
2022-07-29T22:43:46.891Z,6.00
2022-07-29T22:46:14.063Z,4.68
2022-07-29T22:48:41.950Z,3.60
2022-07-29T22:51:09.655Z,4.53
2022-07-29T22:53:37.832Z,12.52
2022-07-29T22:56:07.471Z,5.22
2022-07-29T22:58:35.356Z,3.72
2022-07-29T23:01:02.743Z,5.35
2022-07-29T23:03:30.259Z,4.55
2022-07-29T23:05:57.470Z,3.63
2022-07-29T23:08:24.616Z,3.70
2022-07-29T23:10:51.795Z,4.60
2022-07-29T23:13:18.957Z,6.72
2022-07-29T23:15:46.139Z,3.97
2022-07-29T23:18:13.450Z,4.43
2022-07-29T23:20:41.015Z,4.38
2022-07-29T23:23:08.699Z,3.45
2022-07-29T23:25:37.386Z,4.63
2022-07-29T23:28:05.704Z,4.33
2022-07-29T23:30:36.475Z,4.18
2022-07-29T23:33:03.913Z,4.07
2022-07-29T23:35:31.310Z,3.30
2022-07-29T23:37:58.577Z,3.50
2022-07-29T23:40:25.932Z,4.45
2022-07-29T23:42:53.254Z,5.93
2022-07-29T23:45:20.825Z,6.00
2022-07-29T23:47:48.221Z,5.32
2022-07-29T23:50:16.837Z,5.83
2022-07-29T23:52:44.415Z,8.63
2022-07-29T23:55:38.256Z,7.30
2022-07-29T23:58:05.891Z,4.50
